Weather at RAF Benson

Public forecast

Using degrees Celsius for public forecast. Weather courtesy of forecast.io.

Current aviation weather report (METAR) for RAF Benson

Retrieved 2021/12/07 23:50 UTC (1 hour ago):

EGUB 072350Z AUTO 20015KT 9999 // FEW030/// 06/02 Q0983

Aviation forecast (TAF) for RAF Benson

Forecast is more than 12 hours old.

Retrieved 2021/07/01 21:06 UTC (5 months ago):

TAF TAF EGUB 010002Z 3021/0102 CNL